Latest Coastal Weather Observations for Port Fairy

IDV60701

Issued at 6:11 am EST Monday 16 September 2019 (issued every 10 minutes, with the page automatically refreshed every 10 minutes)

About coastal observations | Map of coastal stations | Coastal observations for VIC | Marine services | Other Formats
Station Details ID: 090175 Name: PORT FAIRY AWS Lat: -38.39 Lon: 142.23 Height: 10.0 m
Data from the previous 72 hours. | See also: Recent months at Port Fairy
Date/Time
EST
Wind Sea
Height
m
Swell Vis
km
Cloud Weather Temp
°C
Press
hPa
Rain since
9am
mm
Dir  Spd
kts
Gust
kts
Height
m
Period
s
Dir
16/06:00am SSW 15 20 - - - - - - - 10.6 1019.6 10.0
16/05:30am SSW 14 19 - - - - - - - 10.6 1019.2 10.0
16/05:00am SSW 13 18 - - - - - - - 10.7 1019.2 10.0
16/04:30am SSW 14 21 - - - - - - - 10.7 1018.7 10.0
16/04:00am SSW 15 20 - - - - - - - 11.0 1018.3 10.0
16/03:30am SSW 16 22 - - - - - - - 11.1 1018.2 10.0
16/03:00am SW 17 24 - - - - - - - 11.5 1018.0 10.0
16/02:30am SW 17 22 - - - - - - - 11.3 1017.8 10.0
16/02:00am WSW 17 22 - - - - - - - 11.1 1017.5 10.0
16/01:30am WSW 17 23 - - - - - - - 11.4 1017.5 10.0
16/01:00am WSW 15 19 - - - - - - - 11.1 1017.7 10.0
16/12:30am WSW 14 19 - - - - - - - 11.0 1017.7 10.0
16/12:00am WSW 15 19 - - - - - - - 10.9 1017.3 10.0
 
Date/Time
EST
Wind Sea
Height
m
Swell Vis
km
Cloud Weather Temp
°C
Press
hPa
Rain since
9am
mm
Dir  Spd
kts
Gust
kts
Height
m
Period
s
Dir
15/11:30pm WSW 16 21 - - - - - - - 11.2 1017.5 10.0
15/11:00pm WSW 16 21 - - - - - - - 10.9 1017.4 10.0
15/10:30pm WSW 15 21 - - - - - - - 11.0 1017.1 10.0
15/10:00pm WSW 15 19 - - - - - - - 11.1 1017.2 10.0
15/09:30pm WSW 13 17 - - - - - - - 11.4 1016.9 10.0
15/09:00pm W 8 13 - - - - - - Recent precip. 10.0 1016.8 10.0
15/08:30pm WSW 15 22 - - - - - - - 10.4 1016.3 10.0
15/08:00pm WSW 16 21 - - - - - - - 11.3 1016.9 9.4
15/07:30pm SW 13 17 - - - - - - - 11.5 1015.8 9.0
15/07:00pm SW 13 17 - - - - - - - 11.2 1015.3 8.8
15/06:30pm SW 15 20 - - - - - - - 12.1 1014.7 8.8
15/06:16pm WSW 12 20 - - - - - - - 13.0 1014.3 8.6
15/06:00pm WNW 6 10 - - - - - - Recent precip. 13.9 1014.0 8.6
15/05:30pm NW 6 10 - - - - - - - 13.9 1013.0 8.4
15/05:00pm NW 11 20 - - - - - - - 14.1 1014.9 8.0
15/04:30pm WNW 10 19 - - - - - - - 14.3 1014.7 7.0
15/04:00pm WNW 9 16 - - - - - - - 14.7 1013.8 5.2
15/03:30pm NW 8 12 - - - - - - - 15.3 1013.9 4.4
15/03:00pm NNW 7 10 - - - - - - Recent precip. 15.2 1012.9 3.8
15/02:30pm N 5 9 - - - - - - - 13.9 1012.8 3.6
15/02:27pm NNW 4 7 - - - - - - - 13.9 1013.4 3.6
15/02:00pm WNW 12 18 - - - - - - - 14.2 1015.4 2.6
15/01:30pm W 9 13 - - - - - - - 15.3 1015.1 1.8
15/01:00pm WNW 8 12 - - - - - - - 17.6 1014.3 1.8
15/12:30pm NW 11 17 - - - - - - - 17.2 1014.8 1.8
15/12:00pm NNW 10 18 - - - - - - Recent precip. 19.7 1014.6 1.6
15/11:30am N 9 13 - - - - - - - 17.5 1014.0 1.6
15/11:00am N 6 9 - - - - - - - 15.0 1015.0 1.4
15/10:30am N 4 6 - - - - - - - 14.7 1016.0 1.2
15/10:00am W 5 9 - - - - - - - 14.5 1016.7 0.8
15/09:30am WNW 3 6 - - - - - - - 14.5 1016.9 0.6
15/09:00am NW 4 6 - - - - - - - 14.8 1017.3 0.0
15/08:30am N 4 6 - - - - - - - 15.0 1016.5 0.0
15/08:00am W 2 2 - - - - - - - 13.8 1016.6 0.0
15/07:30am NNW 3 3 - - - - - - - 13.1 1016.3 0.0
15/07:00am NNW 4 5 - - - - - - - 12.6 1016.3 0.0
15/06:30am NNW 2 3 - - - - - - - 13.0 1016.3 0.0
15/06:00am W 3 4 - - - - - - - 13.1 1016.6 0.0
15/05:30am NNW 3 3 - - - - - - - 13.3 1015.8 0.0
15/05:00am WNW 3 4 - - - - - - - 13.4 1016.3 0.0
15/04:30am NNW 3 5 - - - - - - - 13.7 1016.2 0.0
15/04:00am NNW 3 5 - - - - - - - 13.9 1015.9 0.0
15/03:30am NNW 6 8 - - - - - - - 14.4 1015.7 0.0
15/03:00am NNW 6 10 - - - - - - - 14.8 1016.1 0.0
15/02:30am NNW 6 9 - - - - - - - 14.9 1016.9 0.0
15/02:00am NNW 5 9 - - - - - - - 14.6 1017.6 0.0
15/01:30am NW 7 10 - - - - - - - 15.0 1018.2 0.0
15/01:00am NNW 6 10 - - - - - - - 15.0 1018.3 0.0
15/12:30am NNW 8 11 - - - - - - - 15.2 1018.5 0.0
15/12:00am NNW 8 12 - - - - - - - 15.3 1018.9 0.0
 
Date/Time
EST
Wind Sea
Height
m
Swell Vis
km
Cloud Weather Temp
°C
Press
hPa
Rain since
9am
mm
Dir  Spd
kts
Gust
kts
Height
m
Period
s
Dir
14/11:30pm NNW 7 10 - - - - - - - 15.2 1019.0 0.0
14/11:00pm NNW 8 12 - - - - - - - 15.2 1019.2 0.0
14/10:30pm NNW 8 13 - - - - - - - 15.3 1019.5 0.0
14/10:00pm NNW 7 11 - - - - - - - 15.3 1020.0 0.0
14/09:30pm NNW 8 12 - - - - - - - 15.5 1020.2 0.0
14/09:00pm NNW 8 12 - - - - - - - 15.3 1020.5 0.0
14/08:30pm NNW 6 10 - - - - - - - 15.0 1020.6 0.0
14/08:00pm NNW 6 11 - - - - - - - 15.2 1020.4 0.0
14/07:30pm NNW 6 9 - - - - - - - 15.0 1020.7 0.0
14/07:00pm NNW 5 7 - - - - - - - 14.9 1020.5 0.0
14/06:30pm N 4 5 - - - - - - - 14.6 1020.6 0.0
14/06:00pm N 2 3 - - - - - - - 14.1 1020.9 0.0
14/05:30pm WSW 4 8 - - - - - - - 14.0 1021.6 0.0
14/05:00pm WNW 5 9 - - - - - - - 17.1 1021.3 0.0
14/04:30pm NW 6 9 - - - - - - - 18.2 1021.1 0.0
14/04:00pm NNW 9 16 - - - - - - - 19.6 1021.2 0.0
14/03:30pm NNW 10 15 - - - - - - - 19.3 1021.6 0.0
14/03:00pm NNW 9 16 - - - - - - - 18.8 1021.6 0.0
14/02:30pm NE 2 4 - - - - - - - 15.7 1022.3 0.0
14/02:00pm SSW 3 4 - - - - - - - 14.7 1022.7 0.0
14/01:30pm SW 5 7 - - - - - - - 14.7 1023.5 0.0
14/01:00pm NW 6 10 - - - - - - - 15.9 1024.1 0.0
14/12:30pm NNW 7 11 - - - - - - - 16.5 1024.0 0.0
14/12:00pm NNW 5 11 - - - - - - - 16.1 1024.4 0.0
14/11:30am NNW 6 10 - - - - - - - 15.0 1024.7 0.0
14/11:00am NNW 7 11 - - - - - - - 14.6 1025.1 0.0
14/10:30am N 5 10 - - - - - - - 14.2 1025.6 0.0
14/10:00am NNW 6 9 - - - - - - - 13.5 1026.1 0.0
14/09:30am NW 6 9 - - - - - - - 12.4 1026.4 0.0
14/09:00am NW 6 9 - - - - - - - 12.1 1026.7 0.0
14/08:30am NW 5 8 - - - - - - - 11.1 1026.5 0.0
14/08:00am NNW 5 8 - - - - - - - 9.6 1026.2 0.0
14/07:30am NW 5 7 - - - - - - - 8.5 1026.5 0.0
14/07:00am NW 4 6 - - - - - - - 7.8 1026.5 0.0
14/06:30am NW 4 6 - - - - - - - 7.6 1026.1 0.0
14/06:00am NW 5 6 - - - - - - - 7.9 1026.0 0.0
14/05:30am NNW 2 4 - - - - - - - 7.6 1025.9 0.0
14/05:00am W 4 7 - - - - - - - 9.6 1025.7 0.0
14/04:30am WSW 5 7 - - - - - - - 10.4 1025.7 0.0
14/04:00am WSW 7 10 - - - - - - - 10.8 1025.5 0.0
14/03:30am WSW 7 9 - - - - - - - 10.9 1025.7 0.0
14/03:00am WSW 9 13 - - - - - - - 11.4 1025.9 0.0
14/02:30am WSW 9 11 - - - - - - - 11.7 1026.1 0.0
14/02:00am WSW 9 12 - - - - - - - 11.8 1026.3 0.0
14/01:30am SW 11 15 - - - - - - - 11.6 1026.2 0.0
14/01:00am SW 11 15 - - - - - - - 11.9 1026.3 0.0
14/12:30am WSW 11 16 - - - - - - - 11.9 1026.1 0.0
14/12:00am WSW 11 16 - - - - - - - 12.1 1026.2 0.0
 
Date/Time
EST
Wind Sea
Height
m
Swell Vis
km
Cloud Weather Temp
°C
Press
hPa
Rain since
9am
mm
Dir  Spd
kts
Gust
kts
Height
m
Period
s
Dir
13/11:30pm WSW 12 17 - - - - - - - 11.8 1026.0 0.0
13/11:00pm WSW 14 17 - - - - - - - 11.9 1026.2 0.0
13/10:30pm WSW 14 19 - - - - - - - 12.1 1026.2 0.0
13/10:00pm WSW 15 20 - - - - - - - 12.3 1026.1 0.0
13/09:30pm WSW 17 23 - - - - - - - 12.4 1025.9 0.0
13/09:00pm WSW 13 21 - - - - - - - 12.4 1025.5 0.0
13/08:30pm W 12 18 - - - - - - - 12.3 1025.2 0.0
13/08:00pm W 10 15 - - - - - - - 12.3 1025.0 0.0
13/07:30pm W 10 15 - - - - - - - 12.6 1024.4 0.0
13/07:00pm W 11 17 - - - - - - - 12.6 1023.8 0.0
13/06:30pm W 14 21 - - - - - - - 12.8 1023.8 0.0
13/06:00pm W 14 24 - - - - - - - 13.3 1023.4 0.0
13/05:30pm WNW 16 26 - - - - - - - 13.7 1023.0 0.0
13/05:00pm WNW 17 25 - - - - - - - 14.3 1022.7 0.0
13/04:36pm W 18 29 - - - - - - - 14.3 1022.6 0.0
13/04:30pm W 17 26 - - - - - - - 14.3 1022.6 0.0
13/04:08pm W 18 30 - - - - - - - 14.9 1022.5 0.0
13/04:00pm W 18 25 - - - - - - - 15.0 1022.3 0.0
13/03:39pm W 15 25 - - - - - - - 15.2 1021.9 0.0
13/03:30pm W 12 18 - - - - - - - 15.5 1021.8 0.0
13/03:00pm WNW 11 17 - - - - - - - 17.0 1021.5 0.0
13/02:30pm NW 12 18 - - - - - - - 17.8 1021.4 0.0
13/02:00pm NW 11 20 - - - - - - - 16.6 1021.7 0.0
13/01:30pm NW 12 18 - - - - - - - 16.9 1021.9 0.0
13/01:00pm NW 9 15 - - - - - - - 15.1 1022.5 0.0
13/12:30pm NW 10 17 - - - - - - - 14.8 1022.9 0.0
13/12:00pm NW 9 14 - - - - - - - 14.6 1022.9 0.0
13/11:30am NW 10 14 - - - - - - - 13.0 1023.0 0.0
13/11:00am NW 11 18 - - - - - - - 12.9 1023.9 0.0
13/10:30am NW 9 16 - - - - - - - 12.0 1024.6 0.0
13/10:00am NW 9 13 - - - - - - - 12.3 1025.0 0.0
13/09:30am NW 11 16 - - - - - - - 10.5 1025.0 0.0
13/09:00am NW 9 16 - - - - - - - 10.3 1025.3 0.0
13/08:30am NW 6 9 - - - - - - - 9.6 1025.5 0.0
13/08:00am NNW 7 10 - - - - - - - 9.8 1024.7 0.0
13/07:30am NNW 5 7 - - - - - - - 8.7 1023.9 0.0
13/07:00am NNW 4 6 - - - - - - - 8.0 1024.3 0.0
13/06:30am NNW 4 7 - - - - - - - 7.7 1024.3 0.0

Other formats

Comma delimited format used in spreadsheet applications
http://www.bom.gov.au/fwo/IDV60701/IDV60701.94830.axf

JavaScript Object Notation format (JSON) in row-major order
http://www.bom.gov.au/fwo/IDV60701/IDV60701.94830.json

Data quality

Most of these data are generated automatically and are frequently updated. Quality checks on data are not normally performed. It is possible for incorrect values to appear. Refer to information at About Latest Weather Observations and please check the disclaimer before using these data.